HKWJ

Wajir Airport

Wajir, Kenya
METAR HKWJ 190300Z 00000KT 9999 FEW020 22/18 Q1013
Observed Flight Rules
Sep-19 @ 03:00 UTC (2 hours ago) Visual Flight Rules
Visibility Clouds
10,000+ meters
  • Few at 2,000' AGL
Temperatures Readings
Current 22°C / 72°F
Dewpoint 18°C / 64°F
Humidity 78%
Altimeter 29.91" Hg
Pressure 1013 hPa
Elevation 244
METAR HKWJ 190300Z 00000KT 9999 FEW020 22/18 Q1013
Observed Flight Rules
Sep-19 @ 03:00 UTC
(2 hours ago)
VFR
Clouds
  • Few at 2,000' AGL
Temperature Dewpoint
22°C / 72°F 18°C / 64°F
Humidity Altimeter Pressure
78% 29.91" Hg 1013 hPa